Airfield :
LOGIN :

Register | Disclaimer

   EN    FR    IT 

 










Legend :    VFR   Marginal VFR   IFR   Intensive IFR   Very Intensive IFR
Visi :
Ceiling :
>= 8 km
>= 3000ft
5 to 8 km
1000 to 3000 ft
1500m to 5 km
500 to 1000 ft
800 to 1500m
200 to 500 ft
< 800m
< 200 ft
Symbols :   Thunderstorms  Fog  Heavy snow  Heavy precipitations  Wind > 20 kt
SIGMETs :     Misc.  Thunderstorms  Icing  Turbulence  Mountain Waves  Volcanic Ashes






- Airport Elevation : 1487 ft
- IATA code : MUC


EDDM - München Franz Josef Strauss

CURRENT METAR :
  • 281220Z 28009KT 9999 SCT040 04/M04 Q1020 NOSIG

EXPIRED METARs :
  • 281150Z 26014KT 9999 SCT040 05/M03 Q1020 NOSIG
  • 281120Z 28014KT 9999 BKN033 04/M04 Q1020 NOSIG
  • 281050Z 28018KT 250V310 9999 SCT030 04/M03 Q1020 NOSIG
  • 281020Z 27014KT 250V310 9999 SCT030 04/M02 Q1020 NOSIG
  • 280950Z 28015KT 9999 FEW027 04/M02 Q1019 NOSIG
  • 280920Z 27015KT 9999 SCT023 03/M02 Q1019 NOSIG

TAF TAF EDDM
Valid from the 28 at 12:00 until the 29 at 18:00 UTC


281100Z 2812/2918 27015G25KT 9999 SCT040
BECMG 2813/2815 25008KT
BECMG 2818/2820 15003KT
PROB30
TEMPO 2900/2902 -FZRA
BECMG 2914/2916 28005KT



MET'MAP, your aeronautical weather chart ! - Copyright ORBIFLY December 2007 - Disclaimer

ORBIFLY MET'MAP TEAM :

Programming & Development : Alexandra Zaïnal
Concept & original design : Baudouin d'Aumeries
Assistance for programming : Marc-Olivier Méhu
Technical & hardware support : Manuel Goepfert

Contact : metmap@orbifly.com




SOURCES & CREDITS :

   NOAA